createdAt,value
2023-03-24T00:02:05.055Z,99922.16
2023-03-24T00:04:36.701Z,99918.22
2023-03-24T00:07:08.456Z,99915.44
2023-03-24T00:09:39.954Z,99919.16
2023-03-24T00:12:11.932Z,99909.31
2023-03-24T00:14:43.515Z,99910.13
2023-03-24T00:17:17.774Z,99915.69
2023-03-24T00:19:50.175Z,99915.78
2023-03-24T00:22:21.703Z,99909.50
2023-03-24T00:24:53.426Z,99902.44
2023-03-24T00:27:24.985Z,99906.28
2023-03-24T00:29:59.365Z,99911.34
2023-03-24T00:32:30.893Z,99916.91
2023-03-24T00:35:02.726Z,99908.94
2023-03-24T00:37:34.428Z,99892.25
2023-03-24T00:40:08.362Z,99893.16
2023-03-24T00:42:39.898Z,99893.72
2023-03-24T00:45:11.809Z,99884.91
2023-03-24T00:47:44.897Z,99888.72
2023-03-24T00:50:17.171Z,99885.03
2023-03-24T00:52:49.216Z,99884.81
2023-03-24T00:55:23.237Z,99879.00
2023-03-24T00:57:55.022Z,99636.78
2023-03-24T01:00:26.903Z,99864.41
2023-03-24T01:02:58.532Z,99872.06
2023-03-24T01:05:30.175Z,99874.97
2023-03-24T01:08:03.186Z,99873.91
2023-03-24T01:10:35.143Z,99861.72
2023-03-24T01:13:06.673Z,99855.59
2023-03-24T01:15:38.648Z,99846.06
2023-03-24T01:18:10.174Z,99845.03
2023-03-24T01:20:42.055Z,99837.03
2023-03-24T01:23:14.200Z,99833.00
2023-03-24T01:25:48.207Z,99827.19
2023-03-24T01:28:21.711Z,99824.28
2023-03-24T01:30:53.631Z,99817.66
2023-03-24T01:33:25.141Z,99821.38
2023-03-24T01:35:56.800Z,99816.84
2023-03-24T01:38:28.343Z,99800.88
2023-03-24T01:40:59.860Z,99803.28
2023-03-24T01:43:31.502Z,99784.41
2023-03-24T01:46:03.776Z,99793.34
2023-03-24T01:48:35.371Z,99792.31
2023-03-24T01:51:07.580Z,99791.97
2023-03-24T01:53:39.082Z,99785.84
2023-03-24T01:56:11.066Z,99778.66
2023-03-24T01:58:42.591Z,99775.75
2023-03-24T02:01:14.531Z,99761.94
2023-03-24T02:03:46.089Z,99762.44
2023-03-24T02:06:18.865Z,99754.78
2023-03-24T02:08:50.622Z,99763.09
2023-03-24T02:11:22.505Z,99753.22
2023-03-24T02:13:54.042Z,99748.25
2023-03-24T02:16:25.920Z,99749.88
2023-03-24T02:18:57.442Z,99743.25
2023-03-24T02:21:29.292Z,99737.19
2023-03-24T02:24:00.854Z,99725.22
2023-03-24T02:26:32.600Z,99734.09
2023-03-24T02:29:04.113Z,99729.59
2023-03-24T02:31:35.967Z,99725.63
2023-03-24T02:34:07.474Z,99726.19
2023-03-24T02:36:39.182Z,99726.75
2023-03-24T02:39:10.772Z,99719.06
2023-03-24T02:41:42.656Z,99722.03
2023-03-24T02:44:14.131Z,99713.81
2023-03-24T02:46:46.931Z,99711.13
2023-03-24T02:49:18.495Z,99723.16
2023-03-24T02:51:50.459Z,99718.56
2023-03-24T02:54:21.943Z,99716.41
2023-03-24T02:56:53.905Z,99706.78
2023-03-24T02:59:25.802Z,99701.63
2023-03-24T03:01:57.663Z,99700.50
2023-03-24T03:04:29.618Z,99702.06
2023-03-24T03:07:01.178Z,99686.88
2023-03-24T03:09:32.670Z,99689.59
2023-03-24T03:12:04.467Z,99689.59
2023-03-24T03:14:35.989Z,99684.28
2023-03-24T03:17:08.185Z,99679.25
2023-03-24T03:19:39.770Z,99677.88
2023-03-24T03:22:12.136Z,99675.47
2023-03-24T03:24:43.749Z,99669.25
2023-03-24T03:27:15.567Z,99668.22
2023-03-24T03:29:47.097Z,99663.13
2023-03-24T03:32:18.756Z,99662.31
2023-03-24T03:34:50.263Z,99660.47
2023-03-24T03:37:22.654Z,99653.84
2023-03-24T03:39:54.142Z,99652.47
2023-03-24T03:42:26.061Z,99642.63
2023-03-24T03:44:57.598Z,99646.34
2023-03-24T03:47:29.404Z,99636.47
2023-03-24T03:50:00.925Z,99632.44
2023-03-24T03:52:32.828Z,99626.88
2023-03-24T03:55:04.320Z,99625.81
2023-03-24T03:57:36.004Z,99633.81
2023-03-24T04:00:08.250Z,99625.88
2023-03-24T04:02:40.132Z,99622.97
2023-03-24T04:05:14.165Z,99620.56
2023-03-24T04:07:46.186Z,99614.47
2023-03-24T04:10:17.697Z,99610.50
2023-03-24T04:12:49.366Z,99605.75
2023-03-24T04:15:21.957Z,99614.34
2023-03-24T04:17:53.747Z,99597.66
2023-03-24T04:20:25.352Z,99599.25
2023-03-24T04:22:56.875Z,99592.13
2023-03-24T04:25:28.396Z,99593.72
2023-03-24T04:28:01.113Z,99592.69
2023-03-24T04:30:32.933Z,99589.00
2023-03-24T04:33:04.516Z,99574.13
2023-03-24T04:35:36.562Z,99570.41
2023-03-24T04:38:09.536Z,99567.22
2023-03-24T04:40:42.107Z,99561.38
2023-03-24T04:43:14.205Z,99569.13
2023-03-24T04:45:49.982Z,99574.22
2023-03-24T04:48:22.043Z,99559.31
2023-03-24T04:50:53.539Z,99567.06
2023-03-24T04:53:25.242Z,99565.22
2023-03-24T04:55:56.806Z,99558.09
2023-03-24T04:58:28.609Z,99561.00
2023-03-24T05:01:00.178Z,99547.97
2023-03-24T05:03:32.018Z,99550.69
2023-03-24T05:06:05.633Z,99380.38
2023-03-24T05:08:37.594Z,99544.34
2023-03-24T05:11:09.096Z,99543.03
2023-03-24T05:13:41.145Z,99545.19
2023-03-24T05:16:12.731Z,99545.72
2023-03-24T05:18:44.286Z,99552.16
2023-03-24T05:21:16.111Z,99546.59
2023-03-24T05:23:47.644Z,99541.00
2023-03-24T05:26:19.681Z,99537.00
2023-03-24T05:28:51.197Z,99540.47
2023-03-24T05:31:22.828Z,99543.72
2023-03-24T05:33:54.360Z,99539.75
2023-03-24T05:36:26.248Z,99539.50
2023-03-24T05:38:57.799Z,99548.31
2023-03-24T05:41:29.638Z,99540.41
2023-03-24T05:44:01.275Z,99543.03
2023-03-24T05:46:33.256Z,99533.72
2023-03-24T05:49:04.777Z,99537.72
2023-03-24T05:51:36.507Z,99542.00
2023-03-24T05:54:08.550Z,99537.72
2023-03-24T05:56:40.549Z,99537.72
2023-03-24T05:59:12.159Z,99528.06
2023-03-24T06:01:44.040Z,99523.53
2023-03-24T06:04:15.557Z,99513.97
2023-03-24T06:06:47.378Z,99512.63
2023-03-24T06:09:19.500Z,99522.50
2023-03-24T06:11:51.381Z,99515.13
2023-03-24T06:14:22.871Z,99518.06
2023-03-24T06:16:54.424Z,99513.00
2023-03-24T06:19:25.957Z,99501.78
2023-03-24T06:22:00.490Z,99497.56
2023-03-24T06:24:32.041Z,99496.56
2023-03-24T06:27:03.987Z,99490.19
2023-03-24T06:29:35.495Z,99496.63
2023-03-24T06:32:07.063Z,99488.13
2023-03-24T06:34:41.334Z,99490.31
2023-03-24T06:37:13.188Z,99481.75
2023-03-24T06:39:44.929Z,99472.97
2023-03-24T06:42:16.873Z,99478.59
2023-03-24T06:44:48.345Z,99470.06
2023-03-24T06:47:20.283Z,99482.38
2023-03-24T06:49:51.782Z,99475.75
2023-03-24T06:52:24.924Z,99481.84
2023-03-24T06:54:58.182Z,99473.34
2023-03-24T06:57:29.947Z,99472.31
2023-03-24T07:00:01.527Z,99466.69
2023-03-24T07:02:36.010Z,99459.22
2023-03-24T07:05:09.354Z,99465.06
2023-03-24T07:10:16.371Z,99454.97
2023-03-24T07:12:48.463Z,99448.56
2023-03-24T07:15:19.957Z,99446.66
2023-03-24T07:17:51.854Z,99448.81
2023-03-24T07:20:23.417Z,99441.06
2023-03-24T07:22:54.937Z,99438.66
2023-03-24T07:25:26.575Z,99429.00
2023-03-24T07:27:58.330Z,99433.25
2023-03-24T07:30:39.992Z,99434.06
2023-03-24T07:33:12.954Z,99428.56
2023-03-24T07:35:44.665Z,99426.69
2023-03-24T07:38:16.437Z,99432.06
2023-03-24T07:40:48.166Z,99431.34
2023-03-24T07:43:20.020Z,99436.16
2023-03-24T07:45:51.612Z,99430.84
2023-03-24T07:48:23.432Z,99434.31
2023-03-24T07:50:54.998Z,99431.38
2023-03-24T07:53:26.916Z,99434.31
2023-03-24T07:55:58.501Z,99434.88
2023-03-24T07:58:30.262Z,99446.16
2023-03-24T08:01:01.760Z,99433.31
2023-03-24T08:03:34.297Z,99440.53
2023-03-24T08:06:05.853Z,99435.97
2023-03-24T08:08:37.671Z,99429.81
2023-03-24T08:11:09.207Z,99426.06
2023-03-24T08:13:41.114Z,99431.94
2023-03-24T08:16:12.739Z,99429.25
2023-03-24T08:18:44.446Z,99423.06
2023-03-24T08:21:15.983Z,99419.59
2023-03-24T08:23:47.853Z,99429.47
2023-03-24T08:26:19.336Z,99421.44
2023-03-24T08:28:50.855Z,99418.75
2023-03-24T08:31:22.438Z,99424.63
2023-03-24T08:33:53.992Z,99427.34
2023-03-24T08:36:26.579Z,99418.53
2023-03-24T08:38:58.269Z,99414.78
2023-03-24T08:41:35.012Z,99423.06
2023-03-24T08:44:07.831Z,99420.66
2023-03-24T08:46:39.404Z,99424.38
2023-03-24T08:49:11.227Z,99425.75
2023-03-24T08:51:42.697Z,99412.91
2023-03-24T08:54:14.565Z,99422.03
2023-03-24T08:56:46.127Z,99422.03
2023-03-24T08:59:18.005Z,99424.97
2023-03-24T09:01:49.563Z,99438.09
2023-03-24T09:04:22.117Z,99433.28
2023-03-24T09:07:01.660Z,99435.97
2023-03-24T09:09:34.945Z,99432.75
2023-03-24T09:12:06.421Z,99443.47
2023-03-24T09:14:38.260Z,99446.69
2023-03-24T09:17:09.729Z,99446.16
2023-03-24T09:19:41.558Z,99439.72
2023-03-24T09:22:13.045Z,99438.63
2023-03-24T09:24:45.188Z,99450.69
2023-03-24T09:27:16.666Z,99445.88
2023-03-24T09:29:48.497Z,99405.19
2023-03-24T09:32:19.972Z,99459.00
2023-03-24T09:34:51.811Z,99458.41
2023-03-24T09:37:23.322Z,99454.50
2023-03-24T09:39:55.069Z,99455.81
2023-03-24T09:42:26.564Z,99444.38
2023-03-24T09:44:58.189Z,99462.09
2023-03-24T09:47:30.083Z,99456.78
2023-03-24T09:50:01.596Z,99456.69
2023-03-24T09:52:33.395Z,99455.19
2023-03-24T09:55:04.986Z,99465.38
2023-03-24T09:57:36.932Z,99453.06
2023-03-24T10:00:08.405Z,99470.19
2023-03-24T10:02:40.294Z,99472.53
2023-03-24T10:05:11.847Z,99471.84
2023-03-24T10:07:43.758Z,99479.19
2023-03-24T10:10:15.264Z,99476.81
2023-03-24T10:12:47.084Z,99468.59
2023-03-24T10:15:34.642Z,99472.00
2023-03-24T10:18:09.360Z,99472.03
2023-03-24T10:20:40.837Z,99467.44
2023-03-24T10:23:12.644Z,99478.34
2023-03-24T10:25:44.153Z,99478.03
2023-03-24T10:28:15.777Z,99475.41
2023-03-24T10:30:48.322Z,99484.00
2023-03-24T10:33:21.291Z,99467.88
2023-03-24T10:35:52.834Z,99465.50
2023-03-24T10:38:24.762Z,99470.66
2023-03-24T10:40:56.246Z,99469.50
2023-03-24T10:43:28.513Z,99470.94
2023-03-24T10:46:00.202Z,99463.97
2023-03-24T10:48:31.798Z,99474.94
2023-03-24T10:51:03.487Z,99455.41
2023-03-24T10:53:35.344Z,99467.31
2023-03-24T10:56:06.869Z,99479.97
2023-03-24T10:58:38.827Z,99478.84
2023-03-24T11:01:10.404Z,99487.13
2023-03-24T11:03:43.101Z,99486.13
2023-03-24T11:06:14.638Z,99474.16
2023-03-24T11:08:46.294Z,99482.34
2023-03-24T11:11:17.810Z,99489.69
2023-03-24T11:13:49.501Z,99488.09
2023-03-24T11:16:21.395Z,99491.81
2023-03-24T11:18:52.907Z,99489.84
2023-03-24T11:21:24.440Z,99494.72
2023-03-24T11:23:55.977Z,99499.31
2023-03-24T11:26:27.488Z,99493.78
2023-03-24T11:28:59.093Z,99496.63
2023-03-24T11:31:30.840Z,99490.88
2023-03-24T11:34:03.090Z,99492.78
2023-03-24T11:36:34.708Z,99491.09
2023-03-24T11:39:06.609Z,99490.09
2023-03-24T11:41:38.125Z,99489.78
2023-03-24T11:44:09.887Z,99495.44
2023-03-24T11:46:41.444Z,99487.94
2023-03-24T11:49:13.123Z,99476.69
2023-03-24T11:51:44.845Z,99483.97
2023-03-24T11:54:16.647Z,99501.66
2023-03-24T11:56:48.163Z,99494.69
2023-03-24T11:59:19.855Z,99513.16
2023-03-24T12:01:51.355Z,99507.31
2023-03-24T12:04:23.161Z,99499.78
2023-03-24T12:06:55.520Z,99507.13
2023-03-24T12:09:27.782Z,99492.84
2023-03-24T12:11:59.261Z,99478.06
2023-03-24T12:14:31.011Z,99467.19
2023-03-24T12:17:03.660Z,99475.69
2023-03-24T12:19:35.802Z,99482.19
2023-03-24T12:22:07.353Z,99476.00
2023-03-24T12:24:39.228Z,99481.72
2023-03-24T12:27:10.845Z,99487.66
2023-03-24T12:29:43.081Z,99488.16
2023-03-24T12:32:14.675Z,99505.44
2023-03-24T12:34:46.434Z,99517.34
2023-03-24T12:37:17.939Z,99515.72
2023-03-24T12:39:49.711Z,99501.28
2023-03-24T12:42:21.255Z,99499.03
2023-03-24T12:44:53.119Z,99502.50
2023-03-24T12:47:24.957Z,99511.81
2023-03-24T12:49:56.539Z,99497.75
2023-03-24T12:52:28.136Z,99499.88
2023-03-24T12:55:05.110Z,99497.88
2023-03-24T12:57:36.739Z,99489.50
2023-03-24T13:00:11.658Z,99501.88
2023-03-24T13:02:43.319Z,99506.22
2023-03-24T13:05:17.051Z,99514.06
2023-03-24T13:07:53.808Z,99518.66
2023-03-24T13:10:25.900Z,99510.88
2023-03-24T13:12:57.460Z,99522.03
2023-03-24T13:15:29.266Z,99506.50
2023-03-24T13:18:00.841Z,99521.88
2023-03-24T13:20:32.708Z,99518.81
2023-03-24T13:23:04.192Z,99522.03
2023-03-24T13:25:38.465Z,99536.31
2023-03-24T13:28:09.959Z,99526.50
2023-03-24T13:30:41.804Z,99504.06
2023-03-24T13:33:13.371Z,99471.72
2023-03-24T13:35:45.257Z,99494.19
2023-03-24T13:38:17.872Z,99537.06
2023-03-24T13:40:50.707Z,99556.59
2023-03-24T13:43:22.217Z,99571.63
2023-03-24T13:45:53.913Z,99587.13
2023-03-24T13:48:25.759Z,99598.47
2023-03-24T13:50:57.270Z,99600.38
2023-03-24T13:53:28.741Z,99576.66
2023-03-24T13:56:01.277Z,99582.56
2023-03-24T13:58:32.854Z,99591.66
2023-03-24T14:01:04.602Z,99586.16
2023-03-24T14:03:36.719Z,99572.34
2023-03-24T14:06:09.496Z,99565.34
2023-03-24T14:08:41.532Z,99589.16
2023-03-24T14:11:13.029Z,99579.06
2023-03-24T14:13:44.941Z,99583.03
2023-03-24T14:16:16.436Z,99580.03
2023-03-24T14:18:48.059Z,99570.41
2023-03-24T14:21:19.591Z,99577.75
2023-03-24T14:23:53.416Z,99576.06
2023-03-24T14:26:25.026Z,99574.88
2023-03-24T14:28:56.535Z,99549.25
2023-03-24T14:31:29.074Z,99540.66
2023-03-24T14:34:05.756Z,99522.47
2023-03-24T14:36:40.468Z,99498.69
2023-03-24T14:39:12.388Z,99492.19
2023-03-24T14:41:44.283Z,99515.16
2023-03-24T14:44:16.175Z,99521.78
2023-03-24T14:46:48.098Z,99526.94
2023-03-24T14:49:20.206Z,99518.47
2023-03-24T14:51:51.784Z,99534.78
2023-03-24T14:54:23.594Z,99540.41
2023-03-24T14:56:55.333Z,99541.69
2023-03-24T14:59:27.271Z,99542.31
2023-03-24T15:01:59.383Z,99545.53
2023-03-24T15:04:33.611Z,99542.56
2023-03-24T15:07:06.301Z,99553.97
2023-03-24T15:09:40.901Z,99557.38
2023-03-24T15:12:12.414Z,99561.78
2023-03-24T15:14:44.219Z,99549.66
2023-03-24T15:17:15.758Z,99541.44
2023-03-24T15:19:47.563Z,99553.53
2023-03-24T15:22:19.235Z,99543.78
2023-03-24T15:24:51.191Z,99544.56
2023-03-24T15:27:22.722Z,99565.31
2023-03-24T15:29:54.261Z,99563.03
2023-03-24T15:32:27.354Z,99570.50
2023-03-24T15:34:59.211Z,99563.28
2023-03-24T15:37:30.988Z,99564.88
2023-03-24T15:40:15.352Z,99571.63
2023-03-24T15:42:47.394Z,99564.19
2023-03-24T15:45:19.250Z,99569.03
2023-03-24T15:47:50.929Z,99562.09
2023-03-24T15:50:22.538Z,99572.97
2023-03-24T15:52:54.047Z,99571.34
2023-03-24T15:55:26.507Z,99567.91
2023-03-24T15:57:58.041Z,99583.72
2023-03-24T16:00:29.560Z,99584.78
2023-03-24T16:03:01.189Z,99577.19
2023-03-24T16:05:32.770Z,99572.13
2023-03-24T16:08:05.798Z,99573.47
2023-03-24T16:10:40.719Z,99568.88
2023-03-24T16:13:12.566Z,99566.78
2023-03-24T16:15:44.481Z,99571.38
2023-03-24T16:18:16.115Z,99571.94
2023-03-24T16:20:48.391Z,99569.56
2023-03-24T16:23:20.133Z,99568.53
2023-03-24T16:25:51.905Z,99569.97
2023-03-24T16:28:24.763Z,99577.75
2023-03-24T16:30:57.094Z,99581.97
2023-03-24T16:33:30.324Z,99584.16
2023-03-24T16:36:01.986Z,99588.53
2023-03-24T16:38:34.164Z,99593.88
2023-03-24T16:41:05.938Z,99583.19
2023-03-24T16:43:37.416Z,99591.78
2023-03-24T16:46:09.663Z,99590.16
2023-03-24T16:48:41.506Z,99588.00
2023-03-24T16:51:13.780Z,99595.22
2023-03-24T16:53:45.254Z,99601.66
2023-03-24T16:56:16.807Z,99602.50
2023-03-24T16:58:48.580Z,99603.84
2023-03-24T17:01:29.678Z,99610.84
2023-03-24T17:04:01.269Z,99611.63
2023-03-24T17:06:33.127Z,99514.97
2023-03-24T17:09:05.961Z,99615.94
2023-03-24T17:11:37.786Z,99615.13
2023-03-24T17:14:12.191Z,99617.00
2023-03-24T17:16:45.053Z,99611.66
2023-03-24T17:19:16.610Z,99613.81
2023-03-24T17:21:48.492Z,99616.72
2023-03-24T17:24:19.997Z,99622.59
2023-03-24T17:26:51.510Z,99621.81
2023-03-24T17:29:23.444Z,99632.50
2023-03-24T17:31:55.012Z,99632.19
2023-03-24T17:34:26.495Z,99633.78
2023-03-24T17:36:57.985Z,99638.06
2023-03-24T17:39:29.564Z,99645.50
2023-03-24T17:42:01.453Z,99646.81
2023-03-24T17:44:32.966Z,99656.16
2023-03-24T17:47:04.585Z,99654.78
2023-03-24T17:49:37.375Z,99655.81
2023-03-24T17:52:09.318Z,99659.78
2023-03-24T17:54:40.951Z,99665.91
2023-03-24T17:57:12.880Z,99664.72
2023-03-24T17:59:44.434Z,99664.22
2023-03-24T18:02:18.059Z,99669.28
2023-03-24T18:04:49.851Z,99663.63
2023-03-24T18:07:21.381Z,99657.97
2023-03-24T18:09:53.210Z,99663.00
2023-03-24T18:12:24.702Z,99654.94
2023-03-24T18:14:56.196Z,99659.41
2023-03-24T18:17:27.754Z,99663.88
2023-03-24T18:20:08.671Z,99665.44
2023-03-24T18:22:40.996Z,99671.28
2023-03-24T18:25:13.849Z,99662.94
2023-03-24T18:27:45.517Z,99672.72
2023-03-24T18:30:17.432Z,99679.88
2023-03-24T18:32:49.086Z,99663.47
2023-03-24T18:35:20.982Z,99672.97
2023-03-24T18:37:52.744Z,99671.50
2023-03-24T18:40:24.274Z,99674.94
2023-03-24T18:42:55.797Z,99664.22
2023-03-24T18:45:27.655Z,99670.00
2023-03-24T18:47:59.221Z,99656.81
2023-03-24T18:50:30.894Z,99656.50
2023-03-24T18:53:02.412Z,99662.56
2023-03-24T18:55:33.950Z,99667.31
2023-03-24T18:58:05.476Z,99672.03
2023-03-24T19:00:36.998Z,99668.00
2023-03-24T19:03:08.603Z,99671.44
2023-03-24T19:05:40.763Z,99676.38
2023-03-24T19:08:14.988Z,99672.59
2023-03-24T19:10:46.700Z,99681.56
2023-03-24T19:13:18.312Z,99683.59
2023-03-24T19:15:55.069Z,99679.25
2023-03-24T19:18:26.848Z,99686.69
2023-03-24T19:20:58.700Z,99686.69
2023-03-24T19:23:30.278Z,99693.63
2023-03-24T19:26:02.310Z,99701.69
2023-03-24T19:28:35.563Z,99703.06
2023-03-24T19:31:09.187Z,99711.38
2023-03-24T19:33:40.754Z,99704.63
2023-03-24T19:36:12.527Z,99706.59
2023-03-24T19:38:44.352Z,99713.78
2023-03-24T19:41:16.266Z,99709.44
2023-03-24T19:43:47.823Z,99720.59
2023-03-24T19:46:22.528Z,99713.66
2023-03-24T19:48:54.139Z,99699.28
2023-03-24T19:51:25.691Z,99714.72
2023-03-24T19:53:57.190Z,99722.16
2023-03-24T19:56:28.818Z,99714.16
2023-03-24T19:59:00.482Z,99725.38
2023-03-24T20:01:35.850Z,99737.41
2023-03-24T20:04:07.522Z,99741.75
2023-03-24T20:06:39.346Z,99740.38
2023-03-24T20:09:10.937Z,99740.63
2023-03-24T20:11:42.949Z,99754.53
2023-03-24T20:14:16.802Z,99759.13
2023-03-24T20:16:48.627Z,99748.22
2023-03-24T20:19:20.403Z,99738.84
2023-03-24T20:21:52.260Z,99743.28
2023-03-24T20:24:23.790Z,99733.94
2023-03-24T20:26:55.490Z,99733.69
2023-03-24T20:29:27.014Z,99734.97
2023-03-24T20:31:58.885Z,99746.69
2023-03-24T20:34:30.611Z,99747.41
2023-03-24T20:37:02.486Z,99748.31
2023-03-24T20:39:34.085Z,99747.81
2023-03-24T20:42:06.353Z,99742.75
2023-03-24T20:44:37.874Z,99734.66
2023-03-24T20:47:09.527Z,99743.41
2023-03-24T20:49:41.331Z,99751.88
2023-03-24T20:52:14.670Z,99748.91
2023-03-24T20:54:46.191Z,99748.00
2023-03-24T20:57:18.018Z,99744.22
2023-03-24T20:59:49.592Z,99742.25
2023-03-24T21:02:21.381Z,99746.44
2023-03-24T21:04:52.899Z,99743.72
2023-03-24T21:07:24.712Z,99738.94
2023-03-24T21:09:56.278Z,99744.19
2023-03-24T21:12:27.817Z,99762.03
2023-03-24T21:14:59.334Z,99745.69
2023-03-24T21:17:34.193Z,99753.28
2023-03-24T21:20:13.458Z,99765.13
2023-03-24T21:22:53.750Z,99759.81
2023-03-24T21:25:25.250Z,99758.16
2023-03-24T21:27:57.303Z,99762.34
2023-03-24T21:30:28.856Z,99774.13
2023-03-24T21:33:01.369Z,99762.91
2023-03-24T21:35:32.993Z,99761.41
2023-03-24T21:38:05.730Z,99757.13
2023-03-24T21:40:37.320Z,99756.09
2023-03-24T21:43:09.195Z,99752.75
2023-03-24T21:45:40.750Z,99746.84
2023-03-24T21:48:14.401Z,99735.97
2023-03-24T21:50:46.146Z,99738.28
2023-03-24T21:53:18.031Z,99732.78
2023-03-24T21:55:50.047Z,99735.94
2023-03-24T21:58:22.099Z,99739.06
2023-03-24T22:00:53.623Z,99737.59
2023-03-24T22:03:25.760Z,99734.72
2023-03-24T22:05:57.337Z,99742.03
2023-03-24T22:08:30.494Z,99742.53
2023-03-24T22:11:04.179Z,99746.69
2023-03-24T22:13:37.397Z,99747.75
2023-03-24T22:16:08.939Z,99741.75
2023-03-24T22:18:41.231Z,99742.56
2023-03-24T22:21:12.783Z,99741.19
2023-03-24T22:23:44.950Z,99739.00
2023-03-24T22:26:17.011Z,99737.38
2023-03-24T22:28:48.652Z,99736.00
2023-03-24T22:31:23.036Z,99733.34
2023-03-24T22:33:54.743Z,99740.50
2023-03-24T22:36:26.243Z,99739.69
2023-03-24T22:38:57.831Z,99736.00
2023-03-24T22:41:29.344Z,99732.06
2023-03-24T22:44:01.042Z,99725.47
2023-03-24T22:46:32.575Z,99738.53
2023-03-24T22:49:04.179Z,99734.25
2023-03-24T22:51:35.761Z,99724.19
2023-03-24T22:54:07.560Z,99720.47
2023-03-24T22:56:39.070Z,99725.31
2023-03-24T22:59:10.602Z,99541.22
2023-03-24T23:01:42.178Z,99714.97
2023-03-24T23:04:14.064Z,99721.22
2023-03-24T23:06:46.785Z,99726.00
2023-03-24T23:09:18.312Z,99726.56
2023-03-24T23:11:49.956Z,99731.75
2023-03-24T23:14:21.522Z,99731.31
2023-03-24T23:16:54.291Z,99733.16
2023-03-24T23:19:26.067Z,99730.72
2023-03-24T23:21:58.706Z,99736.94
2023-03-24T23:24:31.517Z,99731.63
2023-03-24T23:27:04.593Z,99734.75
2023-03-24T23:29:36.439Z,99727.69
2023-03-24T23:32:07.941Z,99547.09
2023-03-24T23:34:43.031Z,99729.66
2023-03-24T23:37:14.652Z,99731.59
2023-03-24T23:39:50.532Z,99728.81
2023-03-24T23:42:22.022Z,99733.31
2023-03-24T23:44:53.765Z,99723.97
2023-03-24T23:47:25.284Z,99728.53
2023-03-24T23:49:57.143Z,99724.84
2023-03-24T23:52:28.652Z,99723.69
2023-03-24T23:55:02.261Z,99719.88
2023-03-24T23:57:34.114Z,99714.44
